Time;durP1;ratioP1;P1;durP2;ratioP2;P2;SDS_P1;SDS_P2;PMS_P1;PMS_P2;Temp;Humidity;BMP_temperature;BMP_pressure;BME280_temperature;BME280_humidity;BME280_pressure;Samples;Min_cycle;Max_cycle;Signal;HPM_P1;HPM_P2
2022/09/22 00:01:00;;;;;;;3.10;2.22;;;;;;;;;;5035594;28;20043;-82
2022/09/22 00:03:29;;;;;;;;;;;;;;;;;;5036322;28;20021;-81
2022/09/22 00:06:02;;;;;;;2.63;2.08;;;;;;;;;;5053497;28;19909;-81
2022/09/22 00:08:29;;;;;;;;;;;;;;;;;;5035985;28;20033;-79
2022/09/22 00:11:17;;;;;;;3.53;2.17;;;;;;;;;;5035694;28;19999;-82
2022/09/22 00:13:46;;;;;;;3.83;2.17;;;;;;;;;;5053362;28;20021;-81
2022/09/22 00:16:13;;;;;;;3.78;1.98;;;;;;;;;;5035720;28;20481;-80
2022/09/22 00:18:39;;;;;;;3.40;1.90;;;;;;;;;;5018906;28;20136;-81
2022/09/22 00:21:11;;;;;;;4.75;2.20;;;;;;;;;;5035631;28;20100;-80
2022/09/22 00:23:37;;;;;;;4.30;2.10;;;;;;;;;;5053436;28;20036;-80
2022/09/22 00:26:07;;;;;;;4.95;2.20;;;;;;;;;;5035498;28;20035;-82
2022/09/22 00:28:33;;;;;;;2.95;2.00;;;;;;;;;;5035526;28;20145;-82
2022/09/22 00:31:02;;;;;;;4.50;2.00;;;;;;;;;;5035305;28;20060;-81
2022/09/22 00:33:27;;;;;;;9.88;2.20;;;;;;;;;;5035502;28;20040;-80
2022/09/22 00:35:57;;;;;;;3.15;1.80;;;;;;;;;;5052905;28;20029;-81
2022/09/22 00:38:23;;;;;;;2.55;1.80;;;;;;;;;;5018695;28;20029;-80
2022/09/22 00:40:48;;;;;;;1.98;1.80;;;;;;;;;;5018559;28;20135;-81
2022/09/22 00:43:18;;;;;;;2.78;2.08;;;;;;;;;;5052935;28;20031;-81
2022/09/22 00:45:45;;;;;;;3.75;2.10;;;;;;;;;;5035376;28;20021;-80
2022/09/22 00:48:10;;;;;;;2.35;1.80;;;;;;;;;;5035306;28;20033;-80
2022/09/22 00:50:35;;;;;;;4.47;2.05;;;;;;;;;;5035091;28;20086;-81
2022/09/22 00:53:20;;;;;;;3.63;1.88;;;;;;;;;;5018512;28;20033;-80
2022/09/22 00:55:49;;;;;;;2.92;1.75;;;;;;;;;;5034999;28;20504;-80
2022/09/22 00:58:18;;;;;;;2.95;1.70;;;;;;;;;;5034892;28;20028;-80
2022/09/22 01:00:44;;;;;;;4.00;1.90;;;;;;;;;;5034707;28;20021;-81
2022/09/22 01:03:16;;;;;;;2.80;1.90;;;;;;;;;;5052868;28;20033;-80
2022/09/22 01:05:43;;;;;;;2.45;1.80;;;;;;;;;;5018432;28;20534;-80
2022/09/22 01:08:10;;;;;;;3.22;1.70;;;;;;;;;;5036001;28;20087;-81
2022/09/22 01:10:35;;;;;;;3.10;1.88;;;;;;;;;;5022613;28;20025;-81
2022/09/22 01:13:24;;;;;;;2.63;1.80;;;;;;;;;;5056654;28;20052;-81
2022/09/22 01:15:59;;;;;;;5.75;1.90;;;;;;;;;;5056636;28;20029;-81
2022/09/22 01:18:46;;;;;;;2.97;2.15;;;;;;;;;;5039014;28;20053;-81
2022/09/22 01:21:23;;;;;;;2.55;1.77;;;;;;;;;;5039032;28;20104;-81
2022/09/22 01:23:54;;;;;;;2.97;1.90;;;;;;;;;;5038863;28;20033;-80
2022/09/22 01:26:38;;;;;;;1.75;1.58;;;;;;;;;;5057249;28;20104;-80
2022/09/22 01:29:22;;;;;;;2.78;1.55;;;;;;;;;;5056505;28;20092;-81
2022/09/22 01:31:55;;;;;;;2.60;1.87;;;;;;;;;;5056774;28;20025;-81
2022/09/22 01:34:25;;;;;;;;;;;;;;;;;;5056822;28;20757;-80
2022/09/22 01:36:50;;;;;;;1.95;1.40;;;;;;;;;;5038351;28;19913;-81
2022/09/22 01:39:26;;;;;;;1.52;1.42;;;;;;;;;;5056533;28;20032;-81
2022/09/22 01:42:02;;;;;;;2.30;1.50;;;;;;;;;;5038391;28;20108;-81
2022/09/22 01:44:33;;;;;;;2.35;1.50;;;;;;;;;;5038301;28;20061;-81
2022/09/22 01:47:09;;;;;;;2.63;1.50;;;;;;;;;;5038499;28;20444;-81
2022/09/22 01:49:38;;;;;;;1.92;1.40;;;;;;;;;;5021970;28;20035;-81
2022/09/22 01:52:19;;;;;;;2.40;1.58;;;;;;;;;;5038247;28;20091;-80
2022/09/22 01:54:58;;;;;;;2.75;1.30;;;;;;;;;;5038543;28;20135;-81
2022/09/22 01:57:36;;;;;;;2.15;1.50;;;;;;;;;;5056159;28;20068;-80
2022/09/22 02:00:05;;;;;;;2.83;1.70;;;;;;;;;;5021552;28;20036;-80
2022/09/22 02:02:36;;;;;;;1.88;1.40;;;;;;;;;;5037696;28;20049;-80
2022/09/22 02:05:04;;;;;;;2.88;1.60;;;;;;;;;;5056021;28;20057;-80
2022/09/22 02:07:32;;;;;;;2.33;1.38;;;;;;;;;;5038231;28;20083;-80
2022/09/22 02:09:59;;;;;;;1.85;1.40;;;;;;;;;;5055809;28;20029;-80
2022/09/22 02:12:25;;;;;;;2.30;1.40;;;;;;;;;;5037853;28;20025;-80
2022/09/22 02:14:51;;;;;;;1.40;1.30;;;;;;;;;;5037723;28;20535;-80
2022/09/22 02:17:16;;;;;;;3.50;1.40;;;;;;;;;;5021139;28;20065;-80
2022/09/22 02:19:42;;;;;;;1.95;1.40;;;;;;;;;;5054091;28;20116;-79
2022/09/22 02:22:09;;;;;;;2.40;1.40;;;;;;;;;;5055604;28;20029;-81
2022/09/22 02:24:37;;;;;;;2.90;1.48;;;;;;;;;;5037956;28;20036;-80
2022/09/22 02:27:26;;;;;;;1.83;1.35;;;;;;;;;;5055477;28;20025;-81
2022/09/22 02:29:57;;;;;;;1.58;1.15;;;;;;;;;;5021338;28;20049;-80
2022/09/22 02:32:22;;;;;;;1.45;1.35;;;;;;;;;;5055500;28;20025;-81
2022/09/22 02:34:48;;;;;;;2.15;1.50;;;;;;;;;;5055237;28;20039;-82
2022/09/22 02:37:21;;;;;;;4.18;1.30;;;;;;;;;;5037222;28;20029;-80
2022/09/22 02:39:56;;;;;;;3.33;1.23;;;;;;;;;;5055589;28;20028;-80
2022/09/22 02:42:28;;;;;;;1.65;1.15;;;;;;;;;;5055297;28;20025;-80
2022/09/22 02:45:16;;;;;;;3.15;1.50;;;;;;;;;;5037225;28;20056;-80
2022/09/22 02:48:16;;;;;;;0.93;0.85;;;;;;;;;;5055212;28;20090;-80
2022/09/22 02:50:42;;;;;;;1.83;1.20;;;;;;;;;;5054712;28;20025;-80
2022/09/22 02:53:14;;;;;;;2.65;1.33;;;;;;;;;;5037141;28;20036;-80
2022/09/22 02:55:40;;;;;;;2.05;1.23;;;;;;;;;;5037315;28;20029;-80
2022/09/22 02:58:06;;;;;;;2.70;1.50;;;;;;;;;;5054866;28;20033;-80
2022/09/22 03:00:31;;;;;;;1.58;1.10;;;;;;;;;;5020408;28;20128;-81
2022/09/22 03:02:57;;;;;;;2.63;1.23;;;;;;;;;;5036788;28;20049;-81
2022/09/22 03:05:23;;;;;;;2.20;1.27;;;;;;;;;;5003953;28;20029;-80
2022/09/22 03:07:48;;;;;;;1.52;1.20;;;;;;;;;;5036824;28;20037;-80
2022/09/22 03:10:14;;;;;;;1.67;1.10;;;;;;;;;;5054635;28;20021;-82
2022/09/22 03:12:42;;;;;;;2.08;1.38;;;;;;;;;;5037035;28;20037;-81
2022/09/22 03:15:09;;;;;;;2.78;1.20;;;;;;;;;;5021191;28;20024;-81
2022/09/22 03:17:35;;;;;;;2.75;1.20;;;;;;;;;;5054690;28;20476;-80
2022/09/22 03:20:03;;;;;;;1.42;1.00;;;;;;;;;;5036876;28;20056;-80
2022/09/22 03:22:29;;;;;;;2.38;1.10;;;;;;;;;;5036791;28;20044;-80
2022/09/22 03:24:54;;;;;;;1.77;1.20;;;;;;;;;;5020432;28;20033;-80
2022/09/22 03:27:19;;;;;;;2.25;1.00;;;;;;;;;;5036382;28;20388;-80
2022/09/22 03:29:45;;;;;;;1.25;1.13;;;;;;;;;;5054776;28;20036;-81
2022/09/22 03:32:10;;;;;;;1.45;1.05;;;;;;;;;;5036192;28;20032;-81
2022/09/22 03:34:35;;;;;;;2.30;1.20;;;;;;;;;;5054083;28;20111;-81
2022/09/22 03:37:01;;;;;;;1.67;0.98;;;;;;;;;;5036129;28;20041;-81
2022/09/22 03:39:26;;;;;;;1.48;1.10;;;;;;;;;;5054037;28;20029;-81
2022/09/22 03:41:51;;;;;;;1.65;1.17;;;;;;;;;;5036102;28;20493;-81
2022/09/22 03:44:17;;;;;;;1.85;1.08;;;;;;;;;;5036427;28;20334;-81
2022/09/22 03:46:42;;;;;;;2.40;1.08;;;;;;;;;;5053864;28;20033;-79
2022/09/22 03:49:08;;;;;;;1.20;1.00;;;;;;;;;;5054126;28;20108;-81
2022/09/22 03:51:33;;;;;;;1.13;1.10;;;;;;;;;;5036362;28;20427;-81
2022/09/22 03:53:59;;;;;;;2.13;1.13;;;;;;;;;;5053853;28;20419;-82
2022/09/22 03:56:24;;;;;;;3.50;1.10;;;;;;;;;;5054064;28;20029;-79
2022/09/22 03:58:50;;;;;;;1.42;1.17;;;;;;;;;;5035783;28;20047;-80
2022/09/22 04:01:15;;;;;;;1.48;1.00;;;;;;;;;;5053646;28;20095;-80
2022/09/22 04:03:41;;;;;;;2.28;1.38;;;;;;;;;;5035769;28;20056;-81
2022/09/22 04:06:06;;;;;;;2.33;1.10;;;;;;;;;;5036250;28;20021;-80
2022/09/22 04:08:32;;;;;;;2.88;1.15;;;;;;;;;;5053488;28;20028;-82
2022/09/22 04:10:58;;;;;;;1.15;1.02;;;;;;;;;;5019292;28;20112;-81
2022/09/22 04:13:24;;;;;;;2.10;1.10;;;;;;;;;;5019217;28;20346;-82
2022/09/22 04:15:49;;;;;;;4.80;1.40;;;;;;;;;;5035480;28;20032;-83
2022/09/22 04:18:14;;;;;;;1.40;1.20;;;;;;;;;;5035427;28;20112;-84
2022/09/22 04:20:42;;;;;;;3.28;0.98;;;;;;;;;;5035704;28;20083;-84
2022/09/22 04:23:08;;;;;;;3.15;1.75;;;;;;;;;;5053272;28;20043;-84
2022/09/22 04:25:34;;;;;;;3.83;1.30;;;;;;;;;;5035562;28;20056;-83
2022/09/22 04:27:59;;;;;;;2.88;1.48;;;;;;;;;;5035909;28;20473;-82
2022/09/22 04:30:25;;;;;;;3.08;1.50;;;;;;;;;;5035540;28;20124;-83
2022/09/22 04:32:50;;;;;;;3.60;1.55;;;;;;;;;;5053724;28;20115;-82
2022/09/22 04:35:16;;;;;;;2.95;1.80;;;;;;;;;;5053316;28;20027;-80
2022/09/22 04:37:41;;;;;;;4.97;1.50;;;;;;;;;;5036088;28;20029;-80
2022/09/22 04:40:10;;;;;;;3.55;1.52;;;;;;;;;;5053890;28;20029;-82
2022/09/22 04:42:36;;;;;;;4.95;1.52;;;;;;;;;;5020234;28;20032;-82
2022/09/22 04:45:01;;;;;;;7.43;1.90;;;;;;;;;;5036239;28;20025;-81
2022/09/22 04:47:30;;;;;;;4.47;1.70;;;;;;;;;;5019285;28;20040;-81
2022/09/22 04:49:55;;;;;;;13.18;2.75;;;;;;;;;;5035767;28;20036;-80
2022/09/22 04:52:21;;;;;;;28.65;4.50;;;;;;;;;;5054513;28;20477;-80
2022/09/22 04:54:47;;;;;;;27.98;4.63;;;;;;;;;;5053793;28;20055;-81
2022/09/22 04:57:12;;;;;;;20.05;4.60;;;;;;;;;;5053241;28;20040;-80
2022/09/22 04:59:38;;;;;;;23.67;4.55;;;;;;;;;;5018747;28;20039;-80
2022/09/22 05:02:03;;;;;;;18.27;3.97;;;;;;;;;;5034947;28;20049;-81
2022/09/22 05:04:29;;;;;;;15.25;3.65;;;;;;;;;;5035330;28;20033;-79
2022/09/22 05:06:54;;;;;;;12.43;3.75;;;;;;;;;;5035500;28;20157;-82
2022/09/22 05:09:20;;;;;;;16.70;3.63;;;;;;;;;;5053019;28;20388;-82
2022/09/22 05:11:47;;;;;;;14.15;3.88;;;;;;;;;;5035552;28;20036;-81
2022/09/22 05:14:14;;;;;;;17.02;3.85;;;;;;;;;;5035517;28;20111;-80
2022/09/22 05:16:40;;;;;;;12.52;3.55;;;;;;;;;;5053056;28;20029;-80
2022/09/22 05:19:08;;;;;;;15.48;3.35;;;;;;;;;;5035250;28;20473;-80
2022/09/22 05:21:34;;;;;;;15.02;3.28;;;;;;;;;;5035257;28;20087;-80
2022/09/22 05:23:59;;;;;;;14.73;3.00;;;;;;;;;;5052698;28;20041;-79
2022/09/22 05:26:25;;;;;;;10.05;2.53;;;;;;;;;;5053095;28;20032;-79
2022/09/22 05:28:50;;;;;;;7.78;2.75;;;;;;;;;;5053068;28;20033;-79
2022/09/22 05:31:15;;;;;;;8.77;2.60;;;;;;;;;;5052862;28;20025;-80
2022/09/22 05:33:41;;;;;;;10.68;2.25;;;;;;;;;;5052899;28;20539;-79
2022/09/22 05:36:06;;;;;;;8.55;2.15;;;;;;;;;;5052630;28;20160;-79
2022/09/22 05:38:32;;;;;;;6.20;2.40;;;;;;;;;;5052951;28;20036;-79
2022/09/22 05:40:57;;;;;;;4.90;1.83;;;;;;;;;;5035240;28;20037;-78
2022/09/22 05:43:23;;;;;;;4.90;1.95;;;;;;;;;;5018842;28;20080;-78
2022/09/22 05:45:49;;;;;;;9.63;2.10;;;;;;;;;;5052820;28;20442;-78
2022/09/22 05:48:14;;;;;;;3.97;1.65;;;;;;;;;;5052893;28;20041;-79
2022/09/22 05:50:39;;;;;;;7.63;1.75;;;;;;;;;;5053510;28;20473;-78
2022/09/22 05:53:08;;;;;;;4.38;1.70;;;;;;;;;;5052891;28;20457;-80
2022/09/22 05:55:33;;;;;;;5.63;1.85;;;;;;;;;;5037897;28;20075;-79
2022/09/22 05:57:59;;;;;;;3.78;1.60;;;;;;;;;;5038638;28;20033;-79
2022/09/22 06:00:25;;;;;;;3.85;1.70;;;;;;;;;;5056825;28;20073;-79
2022/09/22 06:02:51;;;;;;;5.05;1.58;;;;;;;;;;5038298;28;20045;-79
2022/09/22 06:05:16;;;;;;;3.88;1.60;;;;;;;;;;5056468;28;20033;-79
2022/09/22 06:07:42;;;;;;;3.25;1.98;;;;;;;;;;5038390;28;20481;-79
2022/09/22 06:10:10;;;;;;;4.03;2.00;;;;;;;;;;5056191;28;20036;-78
2022/09/22 06:12:36;;;;;;;6.45;2.08;;;;;;;;;;5056274;28;20393;-80
2022/09/22 06:15:03;;;;;;;4.22;2.20;;;;;;;;;;5056157;28;20024;-80
2022/09/22 06:17:28;;;;;;;5.30;1.88;;;;;;;;;;5055922;28;20025;-80
2022/09/22 06:19:54;;;;;;;5.68;2.08;;;;;;;;;;5056398;28;20113;-80
2022/09/22 06:22:19;;;;;;;4.93;2.00;;;;;;;;;;5055775;28;20025;-79
2022/09/22 06:24:44;;;;;;;6.70;2.30;;;;;;;;;;5055953;28;20029;-80
2022/09/22 06:27:10;;;;;;;7.47;2.20;;;;;;;;;;5021793;28;20033;-80
2022/09/22 06:29:36;;;;;;;8.05;2.53;;;;;;;;;;5037879;28;20025;-80
2022/09/22 06:32:02;;;;;;;3.90;2.50;;;;;;;;;;5038299;28;20432;-80
2022/09/22 06:34:27;;;;;;;3.55;2.28;;;;;;;;;;5055549;28;20033;-80
2022/09/22 06:36:56;;;;;;;3.97;2.47;;;;;;;;;;5037641;28;20032;-80
2022/09/22 06:39:22;;;;;;;4.78;2.55;;;;;;;;;;5038687;28;20029;-80
2022/09/22 06:41:47;;;;;;;3.45;2.65;;;;;;;;;;5037729;28;20104;-80
2022/09/22 06:44:14;;;;;;;11.25;2.90;;;;;;;;;;5037772;28;20527;-78
2022/09/22 06:46:39;;;;;;;8.13;3.05;;;;;;;;;;5055444;28;20029;-80
2022/09/22 06:49:05;;;;;;;8.18;3.13;;;;;;;;;;5038166;28;20112;-80
2022/09/22 06:51:32;;;;;;;2.75;2.33;;;;;;;;;;5037829;28;20033;-80
2022/09/22 06:53:59;;;;;;;6.43;3.03;;;;;;;;;;5037395;28;20021;-78
2022/09/22 06:56:26;;;;;;;3.70;2.80;;;;;;;;;;5037572;28;20432;-80
2022/09/22 06:58:53;;;;;;;5.30;2.70;;;;;;;;;;5037352;28;20025;-77
2022/09/22 07:01:18;;;;;;;5.00;3.00;;;;;;;;;;5037387;28;20037;-80
2022/09/22 07:03:45;;;;;;;4.88;2.53;;;;;;;;;;5055065;28;20047;-80
2022/09/22 07:06:16;;;;;;;5.03;2.92;;;;;;;;;;5054299;28;20020;-80
2022/09/22 07:08:42;;;;;;;7.18;2.75;;;;;;;;;;5023425;28;20471;-80
2022/09/22 07:11:08;;;;;;;5.60;2.75;;;;;;;;;;5037149;28;20124;-80
2022/09/22 07:13:38;;;;;;;7.00;3.00;;;;;;;;;;5055472;28;20032;-80
2022/09/22 07:16:09;;;;;;;6.53;2.70;;;;;;;;;;5037120;28;20096;-80
2022/09/22 07:18:39;;;;;;;3.42;2.40;;;;;;;;;;5037458;28;20048;-80
2022/09/22 07:21:09;;;;;;;5.00;2.55;;;;;;;;;;5020515;28;20040;-80
2022/09/22 07:23:35;;;;;;;8.75;2.85;;;;;;;;;;5055214;28;20104;-80
2022/09/22 07:26:03;;;;;;;3.03;2.70;;;;;;;;;;5054996;28;20433;-80
2022/09/22 07:28:30;;;;;;;4.72;3.17;;;;;;;;;;5037040;28;20024;-80
2022/09/22 07:30:56;;;;;;;6.80;2.58;;;;;;;;;;5036967;28;20477;-79
2022/09/22 07:33:22;;;;;;;8.63;2.65;;;;;;;;;;5037209;28;20039;-80
2022/09/22 07:35:57;;;;;;;6.47;2.97;;;;;;;;;;5055356;28;20049;-80
2022/09/22 07:38:28;;;;;;;4.28;2.88;;;;;;;;;;5037771;28;20036;-79
2022/09/22 07:40:54;;;;;;;6.07;2.72;;;;;;;;;;5037502;28;20036;-79
2022/09/22 07:43:19;;;;;;;3.67;2.40;;;;;;;;;;5023449;28;20128;-80
2022/09/22 07:45:53;;;;;;;8.70;3.85;;;;;;;;;;5023962;28;20032;-80
2022/09/22 07:48:36;;;;;;;9.35;5.50;;;;;;;;;;5058312;28;20095;-80
2022/09/22 07:51:22;;;;;;;7.57;4.88;;;;;;;;;;5058438;28;20037;-80
2022/09/22 07:53:51;;;;;;;5.82;4.00;;;;;;;;;;5037773;28;20051;-80
2022/09/22 07:56:20;;;;;;;6.82;3.60;;;;;;;;;;5038449;28;20384;-79
2022/09/22 07:58:51;;;;;;;5.50;3.53;;;;;;;;;;5037425;28;20111;-80
2022/09/22 08:01:18;;;;;;;6.75;3.38;;;;;;;;;;5019768;28;20045;-79
2022/09/22 08:03:45;;;;;;;6.45;3.50;;;;;;;;;;5054304;28;20113;-80
2022/09/22 08:06:11;;;;;;;9.77;3.78;;;;;;;;;;5037012;28;20025;-80
2022/09/22 08:08:41;;;;;;;6.18;3.83;;;;;;;;;;5036199;28;20032;-80
2022/09/22 08:11:12;;;;;;;6.80;3.58;;;;;;;;;;5053801;28;20029;-79
2022/09/22 08:13:38;;;;;;;6.25;3.42;;;;;;;;;;5036400;28;20024;-80
2022/09/22 08:16:04;;;;;;;10.32;3.70;;;;;;;;;;5054237;28;20021;-80
2022/09/22 08:18:31;;;;;;;6.28;3.55;;;;;;;;;;5036262;28;20039;-80
2022/09/22 08:20:57;;;;;;;6.00;3.40;;;;;;;;;;5019513;28;20033;-80
2022/09/22 08:23:22;;;;;;;5.28;2.97;;;;;;;;;;5054002;28;20081;-80
2022/09/22 08:25:49;;;;;;;7.07;3.30;;;;;;;;;;5020320;28;20032;-79
2022/09/22 08:28:14;;;;;;;6.43;3.25;;;;;;;;;;5053873;28;20048;-79
2022/09/22 08:30:47;;;;;;;6.57;3.55;;;;;;;;;;5035760;28;20064;-79
2022/09/22 08:33:13;;;;;;;9.93;3.60;;;;;;;;;;5035939;28;20036;-79
2022/09/22 08:36:02;;;;;;;7.18;3.15;;;;;;;;;;5035941;28;20381;-79
2022/09/22 08:38:28;;;;;;;7.28;3.13;;;;;;;;;;5036561;28;20028;-79
2022/09/22 08:40:59;;;;;;;5.22;2.95;;;;;;;;;;5036020;28;20032;-80
2022/09/22 08:43:28;;;;;;;4.38;3.10;;;;;;;;;;5035561;28;20393;-79
2022/09/22 08:45:55;;;;;;;7.45;2.78;;;;;;;;;;5036003;28;20046;-79
2022/09/22 08:54:08;;;;;;;8.65;3.20;;;;;;;;;;5039650;28;20044;-79
2022/09/22 08:56:42;;;;;;;6.78;3.20;;;;;;;;;;5037288;28;20496;-79
2022/09/22 08:59:21;;;;;;;5.50;2.80;;;;;;;;;;5037560;28;20029;-79
2022/09/22 09:01:51;;;;;;;6.88;2.70;;;;;;;;;;5036953;28;20051;-79
2022/09/22 09:04:17;;;;;;;6.05;2.63;;;;;;;;;;5053664;28;20108;-79
2022/09/22 09:07:10;;;;;;;4.55;2.72;;;;;;;;;;5053516;28;20051;-80
2022/09/22 09:09:50;;;;;;;5.03;2.78;;;;;;;;;;5018819;28;20119;-79
2022/09/22 09:12:41;;;;;;;4.65;2.60;;;;;;;;;;5035633;28;20021;-79
2022/09/22 09:15:28;;;;;;;6.22;3.20;;;;;;;;;;5035279;28;20385;-78
2022/09/22 09:17:58;;;;;;;5.93;3.05;;;;;;;;;;5053352;28;20017;-79
2022/09/22 09:20:37;;;;;;;5.15;2.75;;;;;;;;;;5035555;28;20041;-79
2022/09/22 09:23:09;;;;;;;9.25;2.67;;;;;;;;;;5035318;28;20567;-79
2022/09/22 09:25:37;;;;;;;11.35;3.10;;;;;;;;;;5035362;28;20025;-79
2022/09/22 09:28:05;;;;;;;7.43;2.70;;;;;;;;;;5035021;28;20396;-79
2022/09/22 09:30:51;;;;;;;5.78;2.95;;;;;;;;;;5038491;28;20025;-78
2022/09/22 09:33:55;;;;;;;6.45;2.78;;;;;;;;;;5038606;28;20044;-78
2022/09/22 09:36:22;;;;;;;7.27;3.37;;;;;;;;;;5021570;28;20489;-79
2022/09/22 09:38:56;;;;;;;6.00;3.05;;;;;;;;;;5062144;28;20033;-79
2022/09/22 09:41:30;;;;;;;4.68;2.63;;;;;;;;;;5063973;28;20029;-79
2022/09/22 09:43:56;;;;;;;5.60;3.13;;;;;;;;;;5040770;28;20025;-79
2022/09/22 09:46:31;;;;;;;9.10;2.92;;;;;;;;;;5039171;28;20572;-79
2022/09/22 09:49:06;;;;;;;4.57;2.50;;;;;;;;;;5056804;28;20029;-80
2022/09/22 09:51:37;;;;;;;6.05;2.65;;;;;;;;;;5039095;28;20499;-80
2022/09/22 09:54:05;;;;;;;4.10;2.40;;;;;;;;;;5038769;28;20493;-80
2022/09/22 09:56:32;;;;;;;7.68;2.65;;;;;;;;;;5038748;28;20037;-80
2022/09/22 10:01:53;;;;;;;5.28;2.45;;;;;;;;;;5040946;28;20103;-80
2022/09/22 10:04:39;;;;;;;3.60;2.00;;;;;;;;;;5056164;28;20057;-80
2022/09/22 10:07:16;;;;;;;4.18;2.40;;;;;;;;;;5038290;28;20033;-79
2022/09/22 10:09:48;;;;;;;4.15;2.17;;;;;;;;;;5038381;28;20017;-80
2022/09/22 10:12:20;;;;;;;1.92;1.60;;;;;;;;;;5021649;28;20021;-80
2022/09/22 10:14:50;;;;;;;4.28;1.90;;;;;;;;;;5038141;28;20507;-79
2022/09/22 10:17:43;;;;;;;7.10;2.53;;;;;;;;;;5038842;28;20025;-80
2022/09/22 10:20:19;;;;;;;2.85;2.08;;;;;;;;;;5055693;28;20090;-79
2022/09/22 10:22:44;;;;;;;4.05;1.77;;;;;;;;;;5038173;28;20021;-78
2022/09/22 10:25:36;;;;;;;4.82;2.20;;;;;;;;;;5056051;28;20095;-80
2022/09/22 10:28:21;;;;;;;5.22;2.00;;;;;;;;;;5052140;28;20116;-80
2022/09/22 10:31:02;;;;;;;5.00;1.95;;;;;;;;;;5021535;28;20107;-78
2022/09/22 10:33:28;;;;;;;4.03;1.92;;;;;;;;;;5038499;28;20036;-78
2022/09/22 10:35:54;;;;;;;2.97;1.70;;;;;;;;;;5038120;28;20033;-78
2022/09/22 10:38:22;;;;;;;4.13;2.00;;;;;;;;;;5055499;28;20389;-80
2022/09/22 10:41:11;;;;;;;2.50;1.70;;;;;;;;;;5020021;28;20444;-79
2022/09/22 10:43:43;;;;;;;3.38;1.60;;;;;;;;;;5027785;28;20493;-81
2022/09/22 10:47:07;;;;;;;4.65;1.98;;;;;;;;;;5055648;28;20392;-82
2022/09/22 10:49:48;;;;;;;2.55;1.60;;;;;;;;;;5017876;28;20366;-81
2022/09/22 10:52:40;;;;;;;3.40;1.60;;;;;;;;;;5037588;28;20025;-81
2022/09/22 10:55:29;;;;;;;3.15;1.60;;;;;;;;;;5037848;28;20029;-81
2022/09/22 10:58:05;;;;;;;3.65;1.65;;;;;;;;;;5037579;28;20108;-81
2022/09/22 11:00:40;;;;;;;2.78;1.48;;;;;;;;;;5055302;28;20389;-81
2022/09/22 11:03:27;;;;;;;1.85;1.38;;;;;;;;;;5036155;28;20048;-80
2022/09/22 11:12:54;;;;;;;3.45;1.33;;;;;;;;;;5035048;28;20036;-81
2022/09/22 11:15:55;;;;;;;1.52;1.30;;;;;;;;;;5000994;28;20029;-81
2022/09/22 11:18:51;;;;;;;2.53;1.30;;;;;;;;;;5017383;28;20100;-80
2022/09/22 11:21:34;;;;;;;2.50;1.33;;;;;;;;;;5017096;28;20037;-82
2022/09/22 11:24:14;;;;;;;2.08;1.27;;;;;;;;;;5016488;28;20457;-79
2022/09/22 11:26:48;;;;;;;5.18;1.33;;;;;;;;;;5000142;28;20037;-81
2022/09/22 11:30:04;;;;;;;2.65;1.23;;;;;;;;;;5016559;28;20508;-80
2022/09/22 11:32:38;;;;;;;6.13;1.80;;;;;;;;;;4954504;29;20424;-79
2022/09/22 11:35:26;;;;;;;2.85;1.40;;;;;;;;;;4954353;29;20404;-79
2022/09/22 11:38:03;;;;;;;6.63;1.25;;;;;;;;;;5002600;28;20073;-81
2022/09/22 11:40:45;;;;;;;6.10;1.50;;;;;;;;;;5000454;28;20099;-81
2022/09/22 11:43:19;;;;;;;3.20;1.27;;;;;;;;;;5034400;28;20100;-78
2022/09/22 11:45:53;;;;;;;10.30;1.52;;;;;;;;;;5016599;28;20061;-78
2022/09/22 11:48:22;;;;;;;;;;;;;;;;;;5000894;28;20051;-78
2022/09/22 11:51:28;;;;;;;6.57;1.38;;;;;;;;;;5000193;28;19909;-79
2022/09/22 11:54:13;;;;;;;2.97;1.10;;;;;;;;;;5030731;28;20037;-79
2022/09/22 11:56:47;;;;;;;2.00;1.05;;;;;;;;;;5034492;28;20042;-80
2022/09/22 11:59:23;;;;;;;3.13;1.20;;;;;;;;;;5016511;28;20496;-80
2022/09/22 12:01:50;;;;;;;2.40;1.20;;;;;;;;;;5025886;28;20084;-80
2022/09/22 12:04:25;;;;;;;3.17;1.27;;;;;;;;;;5054285;28;20381;-81
2022/09/22 12:06:55;;;;;;;3.30;1.20;;;;;;;;;;5019702;28;20057;-80
2022/09/22 12:09:35;;;;;;;2.88;1.20;;;;;;;;;;5053933;28;20029;-80
2022/09/22 12:12:02;;;;;;;2.22;1.45;;;;;;;;;;5053529;28;20032;-81
2022/09/22 12:14:28;;;;;;;3.47;1.20;;;;;;;;;;5003338;28;20378;-81
2022/09/22 12:16:58;;;;;;;2.00;1.20;;;;;;;;;;5035893;28;20040;-79
2022/09/22 12:19:33;;;;;;;3.72;1.08;;;;;;;;;;5019361;28;20082;-80
2022/09/22 12:22:20;;;;;;;2.17;1.10;;;;;;;;;;5054049;28;20435;-78
2022/09/22 12:24:46;;;;;;;2.83;1.15;;;;;;;;;;5053502;28;20044;-79
2022/09/22 12:27:17;;;;;;;1.50;1.08;;;;;;;;;;5035836;28;20413;-79
2022/09/22 12:29:43;;;;;;;4.00;1.00;;;;;;;;;;5053831;28;20068;-80
2022/09/22 12:32:21;;;;;;;4.82;1.17;;;;;;;;;;5035592;28;20037;-80
2022/09/22 12:34:46;;;;;;;1.30;0.85;;;;;;;;;;5035859;28;20166;-81
2022/09/22 12:37:25;;;;;;;2.17;1.25;;;;;;;;;;5036280;28;20112;-82
2022/09/22 12:39:51;;;;;;;2.42;1.00;;;;;;;;;;5053781;28;20405;-82
2022/09/22 12:42:31;;;;;;;2.97;0.98;;;;;;;;;;5052190;28;20025;-82
2022/09/22 12:45:07;;;;;;;2.83;1.10;;;;;;;;;;5053544;28;20027;-82
2022/09/22 12:47:34;;;;;;;4.18;1.23;;;;;;;;;;5019207;28;20048;-83
2022/09/22 12:50:05;;;;;;;5.78;1.10;;;;;;;;;;5035805;28;20021;-83
2022/09/22 12:52:40;;;;;;;1.55;1.00;;;;;;;;;;5035939;28;20048;-83
2022/09/22 12:55:26;;;;;;;4.10;1.27;;;;;;;;;;5053671;28;20036;-81
2022/09/22 12:57:53;;;;;;;3.83;1.25;;;;;;;;;;5053297;28;20033;-82
2022/09/22 13:00:22;;;;;;;4.30;1.17;;;;;;;;;;5035526;28;20040;-82
2022/09/22 13:02:48;;;;;;;1.83;1.33;;;;;;;;;;5053108;28;20052;-82
2022/09/22 13:05:23;;;;;;;1.90;0.98;;;;;;;;;;5019578;28;20118;-82
2022/09/22 13:07:48;;;;;;;2.75;1.17;;;;;;;;;;5035241;28;20473;-82
2022/09/22 13:10:20;;;;;;;5.00;1.30;;;;;;;;;;5053331;28;20036;-82
2022/09/22 13:13:08;;;;;;;4.88;1.30;;;;;;;;;;5053388;28;20488;-82
2022/09/22 13:15:49;;;;;;;4.22;1.40;;;;;;;;;;5035544;28;20522;-80
2022/09/22 13:18:44;;;;;;;3.22;1.30;;;;;;;;;;5053688;28;20040;-80
2022/09/22 13:21:12;;;;;;;5.70;1.52;;;;;;;;;;5053308;28;20097;-80
2022/09/22 13:23:38;;;;;;;9.48;1.35;;;;;;;;;;5035129;28;20054;-80
2022/09/22 13:26:05;;;;;;;6.30;1.50;;;;;;;;;;5053527;28;20381;-79
2022/09/22 13:28:30;;;;;;;7.43;1.67;;;;;;;;;;5048819;28;20029;-79
2022/09/22 13:31:03;;;;;;;6.65;1.63;;;;;;;;;;5049487;28;20036;-81
2022/09/22 13:33:33;;;;;;;9.30;1.50;;;;;;;;;;5029945;28;20034;-78
2022/09/22 13:36:07;;;;;;;4.93;1.30;;;;;;;;;;5020144;28;20021;-78
2022/09/22 13:38:36;;;;;;;6.15;1.40;;;;;;;;;;5033319;28;20052;-79
2022/09/22 13:41:02;;;;;;;7.57;1.60;;;;;;;;;;5051151;28;20171;-79
2022/09/22 13:43:33;;;;;;;4.75;1.58;;;;;;;;;;5049864;28;20044;-81
2022/09/22 13:45:59;;;;;;;4.43;1.33;;;;;;;;;;5031931;28;20032;-81
2022/09/22 13:48:28;;;;;;;3.10;1.40;;;;;;;;;;5032323;28;20036;-79
2022/09/22 13:50:59;;;;;;;4.55;1.30;;;;;;;;;;5021091;28;20029;-80
2022/09/22 13:53:25;;;;;;;3.80;1.10;;;;;;;;;;5040465;28;20080;-81
2022/09/22 13:55:52;;;;;;;3.17;1.10;;;;;;;;;;5014855;28;20736;-79
2022/09/22 13:58:24;;;;;;;5.65;1.20;;;;;;;;;;5014101;28;20065;-80
2022/09/22 14:00:56;;;;;;;3.03;1.20;;;;;;;;;;5015830;28;20549;-81
2022/09/22 14:03:21;;;;;;;3.25;1.20;;;;;;;;;;5016119;28;20068;-81
2022/09/22 14:05:47;;;;;;;2.50;1.33;;;;;;;;;;5017167;28;20029;-80
2022/09/22 14:08:18;;;;;;;2.67;1.13;;;;;;;;;;5015985;28;20116;-81
2022/09/22 14:10:44;;;;;;;3.58;1.17;;;;;;;;;;5000382;28;20453;-80
2022/09/22 14:13:34;;;;;;;3.05;1.13;;;;;;;;;;5016668;28;20037;-80
2022/09/22 14:16:15;;;;;;;2.25;1.00;;;;;;;;;;5017781;28;20056;-79
2022/09/22 14:18:44;;;;;;;6.28;1.30;;;;;;;;;;5003333;28;20099;-79
2022/09/22 14:21:10;;;;;;;3.08;1.45;;;;;;;;;;5018915;28;20036;-78
2022/09/22 14:23:42;;;;;;;3.05;1.00;;;;;;;;;;5003949;28;20029;-80
2022/09/22 14:26:26;;;;;;;3.42;1.20;;;;;;;;;;5019016;28;20022;-79
2022/09/22 14:28:52;;;;;;;4.32;1.20;;;;;;;;;;5036458;28;20026;-79
2022/09/22 14:31:24;;;;;;;3.55;1.27;;;;;;;;;;5018499;28;20023;-79
2022/09/22 14:33:50;;;;;;;2.85;1.45;;;;;;;;;;5016921;28;20212;-79
2022/09/22 14:36:19;;;;;;;4.32;1.55;;;;;;;;;;5017373;28;20426;-79
2022/09/22 14:38:44;;;;;;;3.22;1.33;;;;;;;;;;5017542;28;20385;-79
2022/09/22 14:41:21;;;;;;;2.92;1.25;;;;;;;;;;5017207;28;20124;-79
2022/09/22 14:43:49;;;;;;;10.20;1.10;;;;;;;;;;5034883;28;20461;-79
2022/09/22 14:46:33;;;;;;;15.73;1.30;;;;;;;;;;5018403;28;20028;-80
2022/09/22 14:49:35;;;;;;;5.80;1.60;;;;;;;;;;5035599;28;20034;-78
2022/09/22 14:52:02;;;;;;;2.53;1.50;;;;;;;;;;5017706;28;20030;-78
2022/09/22 14:54:31;;;;;;;5.43;1.40;;;;;;;;;;5001689;28;20087;-78
2022/09/22 14:57:03;;;;;;;5.55;1.30;;;;;;;;;;4999301;28;20111;-78
2022/09/22 15:02:31;;;;;;;5.18;1.38;;;;;;;;;;5018774;28;20064;-77
2022/09/22 15:04:56;;;;;;;5.40;1.40;;;;;;;;;;5003951;28;20441;-78
2022/09/22 15:07:28;;;;;;;3.47;1.27;;;;;;;;;;4999813;28;20021;-78
2022/09/22 15:09:55;;;;;;;2.00;1.20;;;;;;;;;;5000257;28;20478;-78
2022/09/22 15:12:42;;;;;;;7.45;1.30;;;;;;;;;;4998168;28;20033;-78
2022/09/22 15:15:25;;;;;;;6.00;1.35;;;;;;;;;;4999283;28;20025;-80
2022/09/22 15:18:15;;;;;;;9.82;1.73;;;;;;;;;;5016750;28;20025;-80
2022/09/22 15:20:50;;;;;;;4.82;1.65;;;;;;;;;;5020044;28;20068;-79
2022/09/22 15:23:31;;;;;;;5.32;1.33;;;;;;;;;;5034357;28;20053;-79
2022/09/22 15:26:03;;;;;;;7.15;1.10;;;;;;;;;;5016776;28;20462;-79